Time;durP1;ratioP1;P1;durP2;ratioP2;P2;SDS_P1;SDS_P2;PMS_P1;PMS_P2;Temp;Humidity;BMP_temperature;BMP_pressure;BME280_temperature;BME280_humidity;BME280_pressure;Samples;Min_cycle;Max_cycle;Signal;HPM_P1;HPM_P2
2023/11/05 00:01:56;;;;;;;17.00;3.42;;;11.80;99.90;;;;;;5035407;27;20128;-75
2023/11/05 00:04:22;;;;;;;12.95;3.03;;;11.90;99.90;;;;;;5039721;28;20477;-75
2023/11/05 00:06:48;;;;;;;15.55;3.13;;;12.00;99.90;;;;;;5038919;28;20029;-75
2023/11/05 00:09:13;;;;;;;14.43;2.97;;;11.90;99.90;;;;;;5038792;28;20423;-75
2023/11/05 00:11:40;;;;;;;9.65;2.88;;;11.90;99.90;;;;;;5036422;28;20383;-76
2023/11/05 00:14:06;;;;;;;11.18;2.22;;;11.90;99.90;;;;;;5043756;27;20029;-76
2023/11/05 00:16:31;;;;;;;6.93;2.03;;;11.90;99.90;;;;;;5038837;28;20070;-77
2023/11/05 00:18:57;;;;;;;8.50;2.55;;;11.90;99.90;;;;;;5039320;27;20535;-76
2023/11/05 00:21:23;;;;;;;10.15;2.42;;;12.00;99.90;;;;;;5046061;27;20515;-75
2023/11/05 00:23:48;;;;;;;16.73;2.88;;;12.00;99.90;;;;;;5036949;28;20614;-74
2023/11/05 00:26:14;;;;;;;11.68;2.40;;;11.90;99.90;;;;;;5041355;28;20040;-74
2023/11/05 00:28:40;;;;;;;11.88;2.92;;;11.90;99.90;;;;;;5041793;28;20525;-76
2023/11/05 00:31:05;;;;;;;11.63;2.95;;;11.90;99.90;;;;;;5042482;28;20083;-74
2023/11/05 00:33:31;;;;;;;12.68;2.40;;;11.90;99.90;;;;;;5039880;27;20374;-76
2023/11/05 00:35:57;;;;;;;12.60;1.92;;;12.00;99.90;;;;;;5039960;28;20036;-75
2023/11/05 00:38:23;;;;;;;10.65;2.42;;;12.00;99.90;;;;;;5041849;28;20025;-75
2023/11/05 00:40:49;;;;;;;13.23;3.05;;;11.80;99.90;;;;;;5039134;28;20072;-75
2023/11/05 00:43:14;;;;;;;14.77;2.22;;;11.90;99.90;;;;;;5047524;28;20029;-75
2023/11/05 00:45:40;;;;;;;17.02;2.78;;;12.00;99.90;;;;;;5044362;27;20078;-74
2023/11/05 00:48:06;;;;;;;13.43;2.83;;;11.90;99.90;;;;;;5040913;28;20048;-75
2023/11/05 00:50:31;;;;;;;11.93;2.65;;;11.80;99.90;;;;;;5039905;28;20048;-75
2023/11/05 00:52:57;;;;;;;12.80;2.58;;;11.90;99.90;;;;;;5041239;27;20122;-73
2023/11/05 00:55:23;;;;;;;18.20;2.75;;;11.90;99.90;;;;;;5038990;28;20501;-75
2023/11/05 00:57:48;;;;;;;13.90;3.60;;;11.90;99.90;;;;;;5041730;27;20390;-72
2023/11/05 01:00:16;;;;;;;13.90;2.45;;;11.90;99.90;;;;;;5038227;28;20147;-73
2023/11/05 01:02:45;;;;;;;11.77;2.72;;;11.90;99.90;;;;;;5044676;27;20091;-73
2023/11/05 01:05:11;;;;;;;9.25;2.33;;;12.00;99.90;;;;;;5039994;27;20025;-72
2023/11/05 01:07:37;;;;;;;13.50;2.42;;;11.90;99.90;;;;;;5038638;28;20069;-77
2023/11/05 01:10:03;;;;;;;15.88;3.28;;;11.90;99.90;;;;;;5043611;28;20041;-73
2023/11/05 01:12:29;;;;;;;15.20;2.15;;;11.90;99.90;;;;;;5039033;28;20032;-72
2023/11/05 01:14:55;;;;;;;12.23;3.08;;;11.90;99.90;;;;;;5041552;27;20029;-72
2023/11/05 01:17:21;;;;;;;20.20;3.25;;;12.00;99.90;;;;;;5042210;28;20018;-73
2023/11/05 01:19:47;;;;;;;14.30;2.70;;;11.80;99.90;;;;;;5041639;27;20065;-73
2023/11/05 01:22:13;;;;;;;13.18;2.78;;;11.90;99.90;;;;;;5042706;28;20437;-74
2023/11/05 01:24:39;;;;;;;12.65;2.63;;;11.80;99.90;;;;;;5037982;28;20508;-73
2023/11/05 01:27:05;;;;;;;10.63;2.42;;;11.80;99.90;;;;;;5043313;28;20026;-73
2023/11/05 01:29:32;;;;;;;8.48;2.50;;;11.80;99.90;;;;;;5040227;28;20026;-73
2023/11/05 01:31:57;;;;;;;12.40;2.45;;;11.80;99.90;;;;;;5044198;27;20070;-74
2023/11/05 01:34:23;;;;;;;8.60;2.40;;;11.90;99.90;;;;;;5038249;27;20469;-73
2023/11/05 01:36:49;;;;;;;13.35;2.47;;;11.90;99.90;;;;;;5038899;28;20437;-74
2023/11/05 01:39:15;;;;;;;14.43;2.13;;;11.80;99.90;;;;;;5045515;27;20465;-74
2023/11/05 01:41:41;;;;;;;18.23;2.03;;;11.80;99.90;;;;;;5040709;28;20096;-73
2023/11/05 01:44:07;;;;;;;11.07;2.17;;;11.70;99.90;;;;;;5038404;28;20564;-74
2023/11/05 01:46:33;;;;;;;13.75;2.60;;;11.70;99.90;;;;;;5037279;28;20020;-73
2023/11/05 01:48:59;;;;;;;8.57;2.03;;;11.70;99.90;;;;;;5035715;28;20453;-74
2023/11/05 01:51:25;;;;;;;16.63;2.92;;;11.70;99.90;;;;;;5034174;28;20094;-73
2023/11/05 01:53:53;;;;;;;12.15;2.38;;;11.70;99.90;;;;;;5040785;28;20021;-75
2023/11/05 01:56:20;;;;;;;12.07;2.05;;;11.60;99.90;;;;;;5041680;28;20055;-75
2023/11/05 01:58:49;;;;;;;5.85;2.03;;;11.60;99.90;;;;;;5037174;28;20074;-74
2023/11/05 02:01:16;;;;;;;10.48;2.00;;;11.70;99.90;;;;;;5042439;28;20025;-74
2023/11/05 02:03:42;;;;;;;13.07;2.28;;;11.80;99.90;;;;;;5038369;27;20033;-75
2023/11/05 02:06:08;;;;;;;11.63;2.50;;;11.80;99.90;;;;;;5040350;27;20066;-75
2023/11/05 02:08:35;;;;;;;13.93;2.88;;;11.80;99.90;;;;;;5042663;27;20036;-76
2023/11/05 02:11:00;;;;;;;9.73;1.92;;;11.80;99.90;;;;;;5042027;28;20121;-75
2023/11/05 02:13:26;;;;;;;11.63;2.50;;;11.80;99.90;;;;;;5036031;28;20112;-75
2023/11/05 02:15:52;;;;;;;10.15;2.55;;;11.90;99.90;;;;;;5046253;28;20028;-74
2023/11/05 02:18:18;;;;;;;6.43;1.98;;;11.90;99.90;;;;;;5044533;27;20024;-76
2023/11/05 02:20:44;;;;;;;8.05;1.95;;;11.80;99.90;;;;;;5051705;28;20069;-74
2023/11/05 02:23:16;;;;;;;10.80;2.70;;;11.80;99.90;;;;;;5046728;27;20025;-75
2023/11/05 02:25:42;;;;;;;6.13;2.15;;;11.70;99.90;;;;;;5039250;28;20082;-75
2023/11/05 02:28:07;;;;;;;10.13;2.08;;;11.70;99.90;;;;;;5038855;28;20041;-75
2023/11/05 02:30:33;;;;;;;12.77;2.80;;;11.70;99.90;;;;;;5043486;28;20022;-76
2023/11/05 02:33:00;;;;;;;13.18;2.40;;;11.80;99.90;;;;;;5047692;28;20388;-75
2023/11/05 02:35:26;;;;;;;10.55;2.33;;;11.80;99.90;;;;;;5039251;28;20029;-75
2023/11/05 02:37:52;;;;;;;10.65;2.28;;;11.80;99.90;;;;;;5040231;28;20397;-75
2023/11/05 02:40:18;;;;;;;11.95;2.10;;;11.70;99.90;;;;;;5035963;28;20507;-75
2023/11/05 02:42:43;;;;;;;9.35;2.03;;;11.70;99.90;;;;;;5042974;27;20033;-74
2023/11/05 02:45:10;;;;;;;9.15;2.22;;;11.60;99.90;;;;;;5045463;27;20486;-74
2023/11/05 02:47:35;;;;;;;6.25;2.10;;;11.60;99.90;;;;;;5047056;27;20024;-74
2023/11/05 02:50:02;;;;;;;10.82;2.97;;;11.60;99.90;;;;;;5043213;27;20041;-74
2023/11/05 02:52:27;;;;;;;16.58;2.88;;;11.70;99.90;;;;;;5037088;28;20023;-74
2023/11/05 02:54:53;;;;;;;10.13;2.28;;;11.70;99.90;;;;;;5037169;28;20448;-74
2023/11/05 02:57:20;;;;;;;10.52;1.88;;;11.80;99.90;;;;;;5036710;28;20041;-74
2023/11/05 02:59:48;;;;;;;14.32;2.83;;;11.80;99.90;;;;;;5039326;28;21048;-73
2023/11/05 03:02:14;;;;;;;11.95;2.38;;;11.90;99.90;;;;;;5038064;28;20086;-73
2023/11/05 03:04:40;;;;;;;10.40;2.78;;;11.80;99.90;;;;;;5044466;27;20469;-73
2023/11/05 03:07:06;;;;;;;8.18;2.90;;;11.90;99.90;;;;;;5038249;27;20029;-77
2023/11/05 03:09:32;;;;;;;7.60;3.10;;;11.90;99.90;;;;;;5038152;27;20449;-77
2023/11/05 03:11:58;;;;;;;13.68;4.18;;;11.80;99.90;;;;;;5033105;28;20105;-75
2023/11/05 03:14:24;;;;;;;10.55;3.03;;;11.90;99.90;;;;;;5040538;28;20066;-80
2023/11/05 03:16:50;;;;;;;8.85;2.40;;;11.90;99.90;;;;;;5046737;27;20033;-78
2023/11/05 03:19:16;;;;;;;12.13;2.75;;;12.00;99.90;;;;;;5042370;27;20033;-79
2023/11/05 03:21:42;;;;;;;10.02;2.08;;;12.00;99.90;;;;;;5045417;27;20037;-80
2023/11/05 03:24:08;;;;;;;8.27;1.50;;;12.00;99.90;;;;;;5043520;28;20033;-80
2023/11/05 03:26:34;;;;;;;5.35;1.42;;;12.00;99.90;;;;;;5041161;27;20488;-79
2023/11/05 03:29:00;;;;;;;7.28;1.40;;;12.00;99.90;;;;;;5039695;27;20029;-80
2023/11/05 03:31:26;;;;;;;6.82;1.25;;;12.00;99.90;;;;;;5034184;28;20062;-78
2023/11/05 03:33:51;;;;;;;9.30;1.45;;;12.00;99.90;;;;;;5039206;28;20397;-80
2023/11/05 03:36:17;;;;;;;5.65;1.42;;;12.10;99.90;;;;;;5039549;27;20113;-79
2023/11/05 03:38:43;;;;;;;5.78;1.35;;;12.00;99.90;;;;;;5048542;28;20477;-79
2023/11/05 03:41:09;;;;;;;6.88;1.88;;;12.10;99.90;;;;;;5041151;27;20434;-79
2023/11/05 03:43:35;;;;;;;7.60;1.60;;;12.20;99.90;;;;;;5038016;28;20516;-79
2023/11/05 03:46:04;;;;;;;6.47;1.85;;;12.10;99.90;;;;;;5047625;27;20035;-80
2023/11/05 03:48:30;;;;;;;7.38;1.42;;;12.10;99.90;;;;;;5044737;28;20034;-76
2023/11/05 03:50:56;;;;;;;4.50;1.08;;;12.00;99.90;;;;;;5041209;27;20136;-78
2023/11/05 03:53:21;;;;;;;5.28;0.98;;;12.00;99.90;;;;;;5040220;28;20021;-80
2023/11/05 03:55:47;;;;;;;7.75;1.33;;;11.90;99.90;;;;;;5045368;27;20036;-80
2023/11/05 03:58:13;;;;;;;7.85;1.35;;;11.90;99.90;;;;;;5044734;28;20529;-80
2023/11/05 04:00:39;;;;;;;6.97;1.30;;;12.00;99.90;;;;;;5047497;27;20541;-80
2023/11/05 04:03:05;;;;;;;8.13;1.17;;;11.90;99.90;;;;;;5050062;28;20093;-79
2023/11/05 04:05:31;;;;;;;7.22;1.42;;;12.00;99.90;;;;;;5040085;28;20061;-78
2023/11/05 04:07:57;;;;;;;5.30;1.13;;;12.10;99.90;;;;;;5040111;28;20025;-76
2023/11/05 04:10:23;;;;;;;4.70;0.93;;;12.10;99.90;;;;;;5042798;28;20115;-78
2023/11/05 04:12:48;;;;;;;6.90;1.35;;;12.10;99.90;;;;;;5042631;28;20750;-78
2023/11/05 04:15:14;;;;;;;7.13;1.08;;;12.10;99.90;;;;;;5041344;28;20029;-79
2023/11/05 04:17:40;;;;;;;4.45;0.90;;;12.10;99.90;;;;;;5044693;28;20074;-76
2023/11/05 04:20:06;;;;;;;4.75;1.33;;;12.20;99.90;;;;;;5039626;28;20109;-78
2023/11/05 04:22:33;;;;;;;6.55;1.27;;;12.20;99.90;;;;;;5040895;28;20017;-77
2023/11/05 04:24:59;;;;;;;4.05;1.08;;;12.20;99.90;;;;;;5045753;28;20064;-78
2023/11/05 04:27:25;;;;;;;4.93;1.05;;;12.30;99.90;;;;;;5044580;27;20465;-78
2023/11/05 04:29:50;;;;;;;5.53;1.20;;;12.20;99.90;;;;;;5043436;27;20033;-75
2023/11/05 04:32:17;;;;;;;5.90;1.23;;;12.20;99.90;;;;;;5043461;28;20489;-77
2023/11/05 04:34:43;;;;;;;6.30;1.17;;;12.20;99.90;;;;;;5039816;27;20101;-76
2023/11/05 04:37:10;;;;;;;2.38;0.90;;;12.20;99.90;;;;;;5039229;27;20125;-78
2023/11/05 04:39:36;;;;;;;5.22;1.20;;;12.20;99.90;;;;;;5041239;28;20035;-75
2023/11/05 04:42:04;;;;;;;6.05;1.25;;;12.20;99.90;;;;;;5034712;28;20018;-78
2023/11/05 04:44:29;;;;;;;5.63;0.98;;;12.20;99.90;;;;;;5041173;28;20033;-79
2023/11/05 04:46:55;;;;;;;5.85;0.82;;;12.20;99.90;;;;;;5042478;27;20032;-77
2023/11/05 04:49:21;;;;;;;2.70;1.25;;;12.20;99.90;;;;;;5040160;27;20112;-78
2023/11/05 04:51:46;;;;;;;4.70;1.17;;;12.20;99.90;;;;;;5040221;27;20030;-78
2023/11/05 04:54:12;;;;;;;5.10;1.00;;;12.20;99.90;;;;;;5046958;27;20043;-76
2023/11/05 04:56:37;;;;;;;3.78;1.30;;;12.20;99.90;;;;;;5036672;28;20066;-79
2023/11/05 04:59:03;;;;;;;4.13;1.08;;;12.20;99.90;;;;;;5041969;28;20061;-76
2023/11/05 05:01:29;;;;;;;6.55;1.30;;;12.20;99.90;;;;;;5042311;28;20029;-78
2023/11/05 05:03:54;;;;;;;4.22;1.42;;;12.20;99.90;;;;;;5043360;28;20029;-76
2023/11/05 05:06:20;;;;;;;5.38;1.70;;;12.30;99.90;;;;;;5040992;28;20033;-78
2023/11/05 05:08:48;;;;;;;8.70;1.63;;;12.30;99.90;;;;;;5039129;28;20493;-76
2023/11/05 05:11:15;;;;;;;9.50;1.48;;;12.30;99.90;;;;;;5044516;27;20030;-77
2023/11/05 05:13:42;;;;;;;5.57;1.13;;;12.30;99.90;;;;;;5039601;27;20124;-77
2023/11/05 05:16:12;;;;;;;7.80;1.50;;;12.30;99.90;;;;;;5035496;28;20021;-78
2023/11/05 05:18:41;;;;;;;4.97;1.40;;;12.30;99.90;;;;;;5040725;28;20017;-78
2023/11/05 05:21:06;;;;;;;5.38;1.67;;;12.30;99.90;;;;;;5041426;28;20028;-78
2023/11/05 05:23:32;;;;;;;7.82;1.50;;;12.30;99.90;;;;;;5040948;28;20387;-76
2023/11/05 05:25:58;;;;;;;4.93;1.42;;;12.30;99.90;;;;;;5049532;27;20503;-76
2023/11/05 05:28:23;;;;;;;9.68;2.22;;;12.30;99.90;;;;;;5040276;28;20505;-78
2023/11/05 05:30:49;;;;;;;5.63;1.30;;;12.20;99.90;;;;;;5038117;28;20037;-76
2023/11/05 05:33:15;;;;;;;7.68;1.67;;;12.20;99.90;;;;;;5039022;27;20468;-77
2023/11/05 05:35:41;;;;;;;7.00;1.10;;;12.20;99.90;;;;;;5043660;27;20108;-78
2023/11/05 05:38:06;;;;;;;8.98;1.50;;;12.20;99.90;;;;;;5035936;28;20040;-79
2023/11/05 05:40:32;;;;;;;10.82;2.05;;;12.10;99.90;;;;;;5042123;27;20480;-79
2023/11/05 05:42:58;;;;;;;9.52;2.00;;;12.00;99.90;;;;;;5040262;27;20706;-77
2023/11/05 05:45:24;;;;;;;9.07;1.77;;;12.00;99.90;;;;;;5036438;28;20017;-77
2023/11/05 05:47:49;;;;;;;10.43;2.28;;;11.90;99.90;;;;;;5039014;28;20032;-78
2023/11/05 05:50:15;;;;;;;6.90;1.60;;;12.00;99.90;;;;;;5035391;28;20051;-77
2023/11/05 05:52:41;;;;;;;8.80;1.83;;;12.00;99.90;;;;;;5036120;28;20032;-77
2023/11/05 05:55:10;;;;;;;10.25;1.95;;;12.10;99.90;;;;;;5043300;27;20067;-78
2023/11/05 05:57:35;;;;;;;9.70;1.60;;;12.10;99.90;;;;;;5048251;27;20021;-77
2023/11/05 06:00:04;;;;;;;8.75;1.73;;;12.10;99.90;;;;;;5043326;28;20914;-76
2023/11/05 06:02:30;;;;;;;13.68;2.00;;;12.20;99.90;;;;;;5043238;27;20462;-77
2023/11/05 06:04:55;;;;;;;10.45;1.95;;;12.20;99.90;;;;;;5037099;28;20024;-76
2023/11/05 06:07:21;;;;;;;14.40;2.05;;;12.20;99.90;;;;;;5042552;28;20525;-76
2023/11/05 06:09:48;;;;;;;9.85;2.40;;;12.20;99.90;;;;;;5039041;27;20036;-74
2023/11/05 06:12:14;;;;;;;8.30;1.80;;;12.20;99.90;;;;;;5044680;27;20538;-74
2023/11/05 06:14:40;;;;;;;10.98;2.10;;;12.10;99.90;;;;;;5040708;28;20021;-78
2023/11/05 06:17:05;;;;;;;11.50;2.15;;;12.10;99.90;;;;;;5040577;27;20029;-76
2023/11/05 06:19:31;;;;;;;6.55;1.90;;;12.20;99.90;;;;;;5046613;27;20021;-78
2023/11/05 06:21:57;;;;;;;11.30;2.10;;;12.10;99.90;;;;;;5042388;28;20075;-78
2023/11/05 06:24:22;;;;;;;12.50;2.15;;;12.10;99.90;;;;;;5042164;28;20362;-79
2023/11/05 06:26:48;;;;;;;10.10;2.13;;;12.10;99.90;;;;;;5036378;28;20425;-77
2023/11/05 06:29:14;;;;;;;11.80;2.17;;;12.20;99.90;;;;;;5039290;27;20486;-78
2023/11/05 06:31:40;;;;;;;8.20;2.28;;;12.20;99.90;;;;;;5036922;28;20066;-77
2023/11/05 06:34:06;;;;;;;13.15;2.10;;;12.20;99.90;;;;;;5038876;28;20104;-74
2023/11/05 06:36:31;;;;;;;11.50;2.75;;;12.20;99.90;;;;;;5038180;28;20469;-78
2023/11/05 06:38:57;;;;;;;12.40;2.08;;;12.20;99.90;;;;;;5043434;28;20032;-79
2023/11/05 06:41:23;;;;;;;5.65;1.65;;;12.20;99.90;;;;;;5034882;27;20442;-77
2023/11/05 06:43:58;;;;;;;11.18;2.20;;;12.20;99.90;;;;;;5032945;27;20036;-73
2023/11/05 06:46:28;;;;;;;8.15;2.30;;;12.20;99.90;;;;;;5036647;28;20060;-73
2023/11/05 06:48:54;;;;;;;14.30;2.35;;;12.20;99.90;;;;;;5044313;27;20117;-73
2023/11/05 06:51:20;;;;;;;7.28;2.13;;;12.10;99.90;;;;;;5039242;28;20041;-72
2023/11/05 06:53:45;;;;;;;12.43;2.05;;;12.10;99.90;;;;;;5036920;27;20557;-73
2023/11/05 06:56:11;;;;;;;10.90;2.20;;;12.10;99.90;;;;;;5045069;28;20029;-74
2023/11/05 06:58:37;;;;;;;18.85;3.03;;;12.20;99.90;;;;;;5044274;28;20648;-75
2023/11/05 07:01:04;;;;;;;11.95;2.42;;;12.20;99.90;;;;;;5046060;27;20086;-74
2023/11/05 07:03:30;;;;;;;7.25;1.52;;;12.10;99.90;;;;;;5034928;28;20028;-75
2023/11/05 07:05:56;;;;;;;8.43;1.48;;;12.20;99.90;;;;;;5035613;28;20033;-73
2023/11/05 07:08:21;;;;;;;11.52;2.20;;;12.10;99.90;;;;;;5037841;28;20025;-73
2023/11/05 07:10:47;;;;;;;9.18;2.08;;;12.10;99.90;;;;;;5044513;27;20041;-74
2023/11/05 07:13:13;;;;;;;10.93;2.08;;;12.00;99.90;;;;;;5036737;27;20063;-72
2023/11/05 07:15:38;;;;;;;11.65;2.22;;;12.00;99.90;;;;;;5038487;28;20511;-73
2023/11/05 07:18:06;;;;;;;13.15;2.53;;;12.10;99.90;;;;;;5041205;28;20373;-73
2023/11/05 07:20:32;;;;;;;11.38;1.83;;;12.10;99.90;;;;;;5040557;28;20068;-72
2023/11/05 07:22:58;;;;;;;12.43;2.83;;;12.20;99.90;;;;;;5043065;28;20056;-73
2023/11/05 07:25:23;;;;;;;10.25;2.17;;;12.20;99.90;;;;;;5036709;28;20520;-75
2023/11/05 07:27:49;;;;;;;15.32;2.40;;;12.20;99.90;;;;;;5039954;27;20081;-72
2023/11/05 07:30:15;;;;;;;7.82;2.10;;;12.10;99.90;;;;;;5035565;28;20068;-72
2023/11/05 07:32:41;;;;;;;9.35;2.22;;;12.20;99.90;;;;;;5037132;28;20020;-73
2023/11/05 07:35:17;;;;;;;8.05;1.77;;;12.20;99.90;;;;;;5043670;27;20033;-72
2023/11/05 07:37:43;;;;;;;11.85;2.60;;;12.20;99.90;;;;;;5044565;27;20516;-75
2023/11/05 07:40:11;;;;;;;10.82;2.20;;;12.20;99.90;;;;;;5037903;28;20497;-74
2023/11/05 07:42:36;;;;;;;10.15;3.08;;;12.20;99.90;;;;;;5040531;27;20497;-75
2023/11/05 07:45:03;;;;;;;9.60;2.20;;;12.20;99.90;;;;;;5043803;27;20021;-77
2023/11/05 07:47:29;;;;;;;8.95;2.33;;;12.20;99.90;;;;;;5050523;27;20537;-75
2023/11/05 07:49:54;;;;;;;10.23;2.60;;;12.20;99.90;;;;;;5046021;27;20025;-72
2023/11/05 07:52:20;;;;;;;9.65;2.50;;;12.30;99.90;;;;;;5036928;28;20060;-73
2023/11/05 07:54:46;;;;;;;11.02;2.78;;;12.30;99.90;;;;;;5038792;27;20053;-73
2023/11/05 07:57:11;;;;;;;12.60;2.30;;;12.30;99.90;;;;;;5044855;28;20499;-76
2023/11/05 07:59:38;;;;;;;7.20;2.33;;;12.30;99.90;;;;;;5042657;28;20036;-77
2023/11/05 08:02:04;;;;;;;12.68;2.55;;;12.30;99.90;;;;;;5039580;27;20038;-76
2023/11/05 08:04:30;;;;;;;10.48;2.75;;;12.40;99.90;;;;;;5037336;27;20013;-73
2023/11/05 08:06:55;;;;;;;10.65;2.70;;;12.40;99.90;;;;;;5045706;27;20063;-73
2023/11/05 08:09:21;;;;;;;8.07;2.63;;;12.40;99.90;;;;;;5036353;28;20392;-76
2023/11/05 08:11:49;;;;;;;12.05;2.95;;;12.50;99.90;;;;;;5036621;28;20037;-75
2023/11/05 08:14:16;;;;;;;10.75;2.67;;;12.40;99.90;;;;;;5041689;28;20474;-75
2023/11/05 08:16:42;;;;;;;11.40;2.97;;;12.50;99.90;;;;;;5039385;27;20025;-76
2023/11/05 08:19:08;;;;;;;9.02;2.72;;;12.40;99.90;;;;;;5037935;28;20112;-76
2023/11/05 08:21:34;;;;;;;8.98;2.88;;;12.40;99.90;;;;;;5033498;27;20401;-75
2023/11/05 08:23:59;;;;;;;8.27;2.25;;;12.50;99.90;;;;;;5040324;28;20017;-76
2023/11/05 08:26:25;;;;;;;7.68;2.45;;;12.50;99.90;;;;;;5047342;28;20027;-77
2023/11/05 08:28:51;;;;;;;8.18;1.90;;;12.60;99.90;;;;;;5037150;27;20108;-76
2023/11/05 08:31:17;;;;;;;8.45;2.00;;;12.60;99.90;;;;;;5043028;28;20044;-77
2023/11/05 08:33:42;;;;;;;4.72;1.25;;;12.60;99.90;;;;;;5035020;28;20057;-77
2023/11/05 08:36:08;;;;;;;2.78;1.90;;;12.60;99.90;;;;;;5035183;27;20032;-74
2023/11/05 08:38:35;;;;;;;10.65;1.80;;;12.60;99.90;;;;;;5037697;28;20020;-77
2023/11/05 08:41:01;;;;;;;6.40;2.05;;;12.70;99.90;;;;;;5038590;27;20397;-75
2023/11/05 08:43:27;;;;;;;6.35;2.35;;;12.70;99.90;;;;;;5039242;28;20045;-74
2023/11/05 08:45:52;;;;;;;11.55;2.50;;;12.70;99.90;;;;;;5040412;28;20044;-73
2023/11/05 08:48:18;;;;;;;5.32;2.45;;;12.70;99.90;;;;;;5046427;27;20040;-75
2023/11/05 08:50:44;;;;;;;14.30;3.13;;;12.80;99.90;;;;;;5046584;28;20042;-76
2023/11/05 08:53:10;;;;;;;8.02;3.22;;;12.90;99.90;;;;;;5040672;28;20025;-74
2023/11/05 08:55:36;;;;;;;9.85;3.17;;;12.90;99.90;;;;;;5045525;27;20025;-73
2023/11/05 08:58:03;;;;;;;8.98;2.67;;;12.90;99.90;;;;;;5040404;28;20025;-75
2023/11/05 09:00:32;;;;;;;8.68;3.30;;;13.00;99.90;;;;;;5044129;27;20037;-78
2023/11/05 09:02:59;;;;;;;8.02;2.60;;;12.90;99.90;;;;;;5042104;27;20120;-76
2023/11/05 09:05:25;;;;;;;7.90;2.45;;;12.90;99.90;;;;;;5036573;28;20025;-74
2023/11/05 09:07:51;;;;;;;8.02;2.72;;;12.80;99.90;;;;;;5040535;27;20036;-75
2023/11/05 09:10:18;;;;;;;7.72;2.92;;;12.90;99.90;;;;;;5046225;27;20489;-74
2023/11/05 09:12:44;;;;;;;8.85;3.05;;;12.90;99.90;;;;;;5047813;27;20013;-75
2023/11/05 09:15:10;;;;;;;10.18;3.58;;;12.90;99.90;;;;;;5041079;27;20435;-75
2023/11/05 09:17:36;;;;;;;7.57;2.25;;;13.00;99.90;;;;;;5041287;28;20039;-75
2023/11/05 09:20:04;;;;;;;6.65;2.60;;;13.00;99.90;;;;;;5035260;28;20473;-74
2023/11/05 09:22:30;;;;;;;11.25;3.10;;;13.00;99.90;;;;;;5040417;27;20116;-74
2023/11/05 09:25:02;;;;;;;6.57;2.42;;;13.00;99.90;;;;;;5031914;27;20108;-75
2023/11/05 09:27:29;;;;;;;4.10;2.53;;;13.00;99.90;;;;;;5044027;27;20469;-73
2023/11/05 09:29:55;;;;;;;8.57;2.50;;;13.00;99.90;;;;;;5051213;27;20025;-73
2023/11/05 09:32:21;;;;;;;7.43;2.70;;;13.00;99.90;;;;;;5033301;28;20077;-74
2023/11/05 09:34:47;;;;;;;6.28;2.47;;;13.10;99.90;;;;;;5039754;27;20034;-72
2023/11/05 09:37:12;;;;;;;5.68;2.50;;;13.10;99.90;;;;;;5040223;28;20104;-72
2023/11/05 09:39:39;;;;;;;7.53;2.75;;;13.00;99.90;;;;;;5042542;27;20111;-73
2023/11/05 09:42:06;;;;;;;12.13;3.15;;;13.10;99.90;;;;;;5040169;27;20040;-74
2023/11/05 09:44:32;;;;;;;6.47;2.22;;;13.00;99.90;;;;;;5049703;27;20025;-73
2023/11/05 09:47:00;;;;;;;8.55;2.67;;;13.00;99.90;;;;;;5038336;27;20043;-71
2023/11/05 09:49:27;;;;;;;9.50;2.95;;;13.10;99.90;;;;;;5038881;28;20037;-72
2023/11/05 09:51:53;;;;;;;10.50;3.65;;;13.10;99.90;;;;;;5035151;28;20029;-72
2023/11/05 09:54:19;;;;;;;11.80;2.83;;;13.10;99.90;;;;;;5048868;28;20044;-74
2023/11/05 09:56:45;;;;;;;6.53;2.97;;;13.10;99.90;;;;;;5034901;27;20033;-73
2023/11/05 09:59:11;;;;;;;9.75;2.90;;;13.00;99.90;;;;;;5048522;28;20030;-73
2023/11/05 10:01:37;;;;;;;8.55;3.20;;;13.00;99.90;;;;;;5036892;27;20021;-72
2023/11/05 10:04:08;;;;;;;7.72;2.80;;;13.00;99.90;;;;;;5035872;28;20036;-72
2023/11/05 10:06:34;;;;;;;7.32;2.72;;;13.00;99.90;;;;;;5034402;27;20036;-74
2023/11/05 10:09:03;;;;;;;7.25;3.15;;;13.20;99.90;;;;;;5042923;27;20022;-73
2023/11/05 10:11:30;;;;;;;4.10;2.55;;;13.20;99.90;;;;;;5037866;28;20034;-71
2023/11/05 10:13:56;;;;;;;6.35;2.72;;;13.20;99.90;;;;;;5034200;28;20584;-73
2023/11/05 10:16:25;;;;;;;6.55;2.80;;;13.20;99.90;;;;;;5044955;27;20060;-72
2023/11/05 10:18:57;;;;;;;5.38;3.13;;;13.20;99.90;;;;;;5043677;27;20405;-72
2023/11/05 10:21:35;;;;;;;7.77;3.27;;;13.00;99.90;;;;;;5044736;28;20155;-72
2023/11/05 10:24:02;;;;;;;5.72;3.15;;;13.00;99.90;;;;;;5044403;27;20032;-73
2023/11/05 10:26:33;;;;;;;7.07;3.40;;;13.00;99.90;;;;;;5041883;27;20028;-73
2023/11/05 10:29:00;;;;;;;5.63;3.22;;;13.00;99.90;;;;;;5045829;27;20083;-76
2023/11/05 10:31:27;;;;;;;5.10;3.25;;;13.00;99.90;;;;;;5046400;28;20437;-74
2023/11/05 10:33:54;;;;;;;8.52;3.33;;;13.00;99.90;;;;;;5038607;27;20033;-76
2023/11/05 10:36:25;;;;;;;6.78;3.05;;;13.00;99.90;;;;;;5033438;27;20028;-73
2023/11/05 10:38:51;;;;;;;5.10;3.28;;;13.00;99.90;;;;;;5022499;27;20026;-72
2023/11/05 10:41:18;;;;;;;8.63;3.85;;;13.00;99.90;;;;;;5036498;27;20405;-72
2023/11/05 10:43:48;;;;;;;5.78;3.70;;;13.00;99.90;;;;;;5047056;27;20032;-77
2023/11/05 10:46:20;;;;;;;8.30;3.65;;;13.00;99.90;;;;;;5043242;27;20036;-74
2023/11/05 10:48:49;;;;;;;11.02;3.85;;;12.90;99.90;;;;;;5049082;27;20028;-75
2023/11/05 10:54:47;;;;;;;7.43;4.45;;;13.00;99.90;;;;;;5075385;27;20039;-73
2023/11/05 10:57:40;;;;;;;10.45;4.63;;;13.00;99.90;;;;;;5042630;27;20041;-75
2023/11/05 11:00:11;;;;;;;8.70;4.82;;;12.90;99.90;;;;;;5045698;27;20437;-75
2023/11/05 11:02:38;;;;;;;9.32;4.95;;;12.90;99.90;;;;;;5050704;27;20089;-80
2023/11/05 11:05:04;;;;;;;10.30;5.32;;;12.90;99.90;;;;;;5049528;27;20021;-76
2023/11/05 11:07:32;;;;;;;10.13;5.22;;;13.00;99.90;;;;;;5046566;27;20031;-74
2023/11/05 11:09:58;;;;;;;11.48;5.78;;;13.00;99.90;;;;;;5041579;27;20036;-80
2023/11/05 11:12:33;;;;;;;10.75;6.30;;;12.90;99.90;;;;;;5042929;27;20033;-74
2023/11/05 11:15:02;;;;;;;12.63;5.95;;;12.90;99.90;;;;;;5036119;27;20033;-77
2023/11/05 11:17:37;;;;;;;11.75;6.38;;;13.00;99.90;;;;;;5046739;27;20036;-74
2023/11/05 11:20:23;;;;;;;11.98;6.38;;;12.90;99.90;;;;;;5048638;27;20073;-75
2023/11/05 11:22:52;;;;;;;12.95;6.22;;;13.00;99.90;;;;;;5043023;27;20473;-75
2023/11/05 11:25:17;;;;;;;14.05;6.63;;;13.00;99.90;;;;;;5045175;27;20037;-74
2023/11/05 11:27:48;;;;;;;9.43;5.80;;;13.00;99.90;;;;;;5035688;28;20047;-75
2023/11/05 11:30:14;;;;;;;11.27;5.82;;;13.10;99.90;;;;;;5040498;27;20065;-74
2023/11/05 11:32:41;;;;;;;11.63;6.47;;;13.00;99.90;;;;;;5048594;27;20897;-77
2023/11/05 11:35:08;;;;;;;12.57;6.72;;;13.00;99.90;;;;;;5045039;27;20049;-74
2023/11/05 11:37:36;;;;;;;11.73;6.78;;;13.00;99.90;;;;;;5048722;27;20489;-75
2023/11/05 11:40:12;;;;;;;15.30;6.60;;;13.00;99.90;;;;;;5040912;27;20073;-75
2023/11/05 11:42:39;;;;;;;13.95;8.23;;;13.00;99.90;;;;;;5046146;27;20025;-75
2023/11/05 11:45:06;;;;;;;13.63;7.85;;;13.10;99.90;;;;;;5043981;27;20362;-73
2023/11/05 11:47:34;;;;;;;22.05;9.27;;;13.10;99.90;;;;;;5035724;27;20031;-73
2023/11/05 11:50:07;;;;;;;16.20;8.68;;;13.00;99.90;;;;;;5046392;27;20033;-73
2023/11/05 11:52:49;;;;;;;18.65;9.13;;;13.10;99.90;;;;;;5042197;27;20021;-73
2023/11/05 11:55:23;;;;;;;20.65;9.32;;;13.10;99.90;;;;;;5047977;27;20022;-74
2023/11/05 11:57:49;;;;;;;21.67;9.88;;;13.10;99.90;;;;;;5040454;27;20062;-73
2023/11/05 12:00:22;;;;;;;22.35;10.00;;;13.10;99.90;;;;;;5038562;27;20027;-75
2023/11/05 12:02:51;;;;;;;;;;;13.20;99.90;;;;;;5040837;27;20021;-72
2023/11/05 12:05:21;;;;;;;21.60;11.38;;;13.20;99.90;;;;;;5040994;27;20279;-73
2023/11/05 12:07:49;;;;;;;16.58;9.30;;;13.20;99.90;;;;;;5046163;27;20029;-76
2023/11/05 12:10:20;;;;;;;22.40;10.15;;;13.20;99.90;;;;;;5050440;27;20081;-72
2023/11/05 12:12:49;;;;;;;17.10;8.32;;;13.10;99.90;;;;;;5048477;27;20031;-73
2023/11/05 12:15:16;;;;;;;16.92;8.90;;;13.10;99.90;;;;;;5050043;27;20021;-76
2023/11/05 12:17:43;;;;;;;17.23;8.35;;;13.10;99.90;;;;;;5038872;27;20033;-73
2023/11/05 12:20:12;;;;;;;20.65;8.73;;;13.10;99.90;;;;;;5043617;27;20017;-72
2023/11/05 12:22:41;;;;;;;19.63;8.52;;;13.10;99.90;;;;;;5050362;27;20022;-72
2023/11/05 12:25:09;;;;;;;13.65;8.57;;;13.10;99.90;;;;;;5047718;27;20096;-74
2023/11/05 12:27:44;;;;;;;12.32;7.32;;;13.10;99.90;;;;;;5045728;27;20027;-73
2023/11/05 12:30:10;;;;;;;15.13;7.00;;;13.10;99.90;;;;;;5050085;27;20473;-73
2023/11/05 12:32:43;;;;;;;16.10;7.18;;;13.10;99.90;;;;;;5050490;27;20029;-73
2023/11/05 12:35:10;;;;;;;16.95;7.05;;;13.20;99.90;;;;;;5038750;27;20052;-74
2023/11/05 12:37:36;;;;;;;13.80;6.18;;;13.10;99.90;;;;;;5043456;27;20029;-73
2023/11/05 12:40:04;;;;;;;12.57;6.15;;;13.10;99.90;;;;;;5044660;27;20638;-73
2023/11/05 12:42:33;;;;;;;12.85;5.60;;;13.20;99.90;;;;;;5044402;27;20541;-73
2023/11/05 12:44:59;;;;;;;12.85;5.38;;;13.10;99.90;;;;;;5050048;27;20031;-73